sensor_id;sensor_type;location;lat;lon;timestamp;pressure;altitude;pressure_sealevel;temperature;humidity
71791;BME280;59638;52.126;5.434;2024-03-23T00:53:04;101091.03;;;6.63;100.00
71791;BME280;59638;52.126;5.434;2024-03-23T00:55:29;101088.41;;;6.63;100.00
71791;BME280;59638;52.126;5.434;2024-03-23T00:57:55;101078.88;;;6.62;100.00
71791;BME280;59638;52.126;5.434;2024-03-23T01:00:20;101078.13;;;6.60;100.00
71791;BME280;59638;52.126;5.434;2024-03-23T01:02:46;101086.72;;;6.62;100.00
71791;BME280;59638;52.126;5.434;2024-03-23T01:05:11;101090.19;;;6.63;100.00
71791;BME280;59638;52.126;5.434;2024-03-23T01:07:37;101075.28;;;6.63;100.00
71791;BME280;59638;52.126;5.434;2024-03-23T01:10:02;101081.38;;;6.64;100.00
71791;BME280;59638;52.126;5.434;2024-03-23T01:12:28;101077.81;;;6.65;100.00
71791;BME280;59638;52.126;5.434;2024-03-23T01:14:54;101071.72;;;6.64;100.00
71791;BME280;59638;52.126;5.434;2024-03-23T01:17:19;101064.56;;;6.66;100.00
71791;BME280;59638;52.126;5.434;2024-03-23T01:19:45;101074.16;;;6.67;100.00
71791;BME280;59638;52.126;5.434;2024-03-23T01:22:10;101063.66;;;6.67;100.00
71791;BME280;59638;52.126;5.434;2024-03-23T01:24:36;101067.94;;;6.68;100.00
71791;BME280;59638;52.126;5.434;2024-03-23T01:27:01;101059.31;;;6.66;100.00
71791;BME280;59638;52.126;5.434;2024-03-23T01:29:27;101054.91;;;6.67;100.00
71791;BME280;59638;52.126;5.434;2024-03-23T01:31:53;101051.47;;;6.66;100.00
71791;BME280;59638;52.126;5.434;2024-03-23T01:34:18;101048.00;;;6.66;100.00
71791;BME280;59638;52.126;5.434;2024-03-23T01:36:46;101042.88;;;6.64;100.00
71791;BME280;59638;52.126;5.434;2024-03-23T01:39:12;101033.31;;;6.63;100.00
71791;BME280;59638;52.126;5.434;2024-03-23T01:41:40;101028.38;;;6.59;100.00
71791;BME280;59638;52.126;5.434;2024-03-23T01:44:07;101032.09;;;6.56;100.00
71791;BME280;59638;52.126;5.434;2024-03-23T01:46:33;101023.69;;;6.51;100.00
71791;BME280;59638;52.126;5.434;2024-03-23T01:48:59;101019.09;;;6.42;100.00
71791;BME280;59638;52.126;5.434;2024-03-23T01:51:25;101024.97;;;6.33;100.00
71791;BME280;59638;52.126;5.434;2024-03-23T01:53:52;101015.13;;;6.23;100.00
71791;BME280;59638;52.126;5.434;2024-03-23T01:56:19;101014.06;;;6.13;100.00
71791;BME280;59638;52.126;5.434;2024-03-23T01:58:45;101023.50;;;6.03;100.00
71791;BME280;59638;52.126;5.434;2024-03-23T02:01:10;101020.56;;;5.95;100.00
71791;BME280;59638;52.126;5.434;2024-03-23T02:03:36;101020.00;;;5.90;100.00
71791;BME280;59638;52.126;5.434;2024-03-23T02:06:02;101014.22;;;5.85;100.00
71791;BME280;59638;52.126;5.434;2024-03-23T02:08:28;101014.84;;;5.76;100.00
71791;BME280;59638;52.126;5.434;2024-03-23T02:10:55;101016.94;;;5.70;100.00
71791;BME280;59638;52.126;5.434;2024-03-23T02:13:20;101019.22;;;5.62;100.00
71791;BME280;59638;52.126;5.434;2024-03-23T02:15:46;101019.63;;;5.56;100.00
71791;BME280;59638;52.126;5.434;2024-03-23T02:18:12;101017.41;;;5.50;100.00
71791;BME280;59638;52.126;5.434;2024-03-23T02:20:38;101014.78;;;5.50;100.00
71791;BME280;59638;52.126;5.434;2024-03-23T02:23:04;101015.19;;;5.44;100.00
71791;BME280;59638;52.126;5.434;2024-03-23T02:25:32;101017.09;;;5.42;100.00
71791;BME280;59638;52.126;5.434;2024-03-23T02:27:58;101018.09;;;5.39;100.00
71791;BME280;59638;52.126;5.434;2024-03-23T02:30:25;101012.25;;;5.36;100.00
71791;BME280;59638;52.126;5.434;2024-03-23T02:32:51;101002.19;;;5.30;100.00
71791;BME280;59638;52.126;5.434;2024-03-23T02:35:16;100991.88;;;5.27;100.00
71791;BME280;59638;52.126;5.434;2024-03-23T02:37:42;100996.59;;;5.22;100.00
71791;BME280;59638;52.126;5.434;2024-03-23T02:40:07;100990.00;;;5.16;100.00
71791;BME280;59638;52.126;5.434;2024-03-23T02:42:33;100992.69;;;5.14;100.00
71791;BME280;59638;52.126;5.434;2024-03-23T02:44:59;100992.91;;;5.11;100.00
71791;BME280;59638;52.126;5.434;2024-03-23T02:47:24;100996.63;;;5.07;100.00
71791;BME280;59638;52.126;5.434;2024-03-23T02:49:50;100994.22;;;5.04;100.00
71791;BME280;59638;52.126;5.434;2024-03-23T02:52:15;100996.13;;;5.02;100.00
71791;BME280;59638;52.126;5.434;2024-03-23T02:54:41;100996.28;;;4.99;100.00
71791;BME280;59638;52.126;5.434;2024-03-23T02:57:10;101002.47;;;4.98;100.00
71791;BME280;59638;52.126;5.434;2024-03-23T02:59:36;101002.66;;;4.95;100.00
71791;BME280;59638;52.126;5.434;2024-03-23T03:02:01;100993.34;;;4.91;100.00
71791;BME280;59638;52.126;5.434;2024-03-23T03:04:27;100994.44;;;4.87;100.00
71791;BME280;59638;52.126;5.434;2024-03-23T03:06:52;100988.50;;;4.85;100.00
71791;BME280;59638;52.126;5.434;2024-03-23T03:09:18;100995.59;;;4.83;100.00
71791;BME280;59638;52.126;5.434;2024-03-23T03:11:43;100993.16;;;4.80;100.00
71791;BME280;59638;52.126;5.434;2024-03-23T03:14:09;100996.28;;;4.72;100.00
71791;BME280;59638;52.126;5.434;2024-03-23T03:16:34;101004.38;;;4.68;100.00
71791;BME280;59638;52.126;5.434;2024-03-23T03:19:00;100998.69;;;4.61;100.00
71791;BME280;59638;52.126;5.434;2024-03-23T03:21:26;100997.13;;;4.58;100.00
71791;BME280;59638;52.126;5.434;2024-03-23T03:23:52;100997.03;;;4.60;100.00
71791;BME280;59638;52.126;5.434;2024-03-23T03:26:18;100996.41;;;4.56;100.00
71791;BME280;59638;52.126;5.434;2024-03-23T03:28:43;100995.28;;;4.46;100.00
71791;BME280;59638;52.126;5.434;2024-03-23T03:31:15;100989.47;;;4.41;100.00
71791;BME280;59638;52.126;5.434;2024-03-23T03:33:40;100995.84;;;4.37;100.00
71791;BME280;59638;52.126;5.434;2024-03-23T03:36:06;100991.16;;;4.28;100.00
71791;BME280;59638;52.126;5.434;2024-03-23T03:38:31;100992.59;;;4.19;100.00
71791;BME280;59638;52.126;5.434;2024-03-23T03:40:57;100981.88;;;4.09;100.00
71791;BME280;59638;52.126;5.434;2024-03-23T03:43:24;100987.72;;;3.99;100.00
71791;BME280;59638;52.126;5.434;2024-03-23T03:45:57;100984.63;;;3.92;100.00
71791;BME280;59638;52.126;5.434;2024-03-23T03:48:22;100983.50;;;3.82;100.00
71791;BME280;59638;52.126;5.434;2024-03-23T03:50:48;100982.38;;;3.72;100.00
71791;BME280;59638;52.126;5.434;2024-03-23T03:53:14;100974.16;;;3.64;100.00
71791;BME280;59638;52.126;5.434;2024-03-23T03:55:39;100977.84;;;3.60;100.00
71791;BME280;59638;52.126;5.434;2024-03-23T03:58:05;100975.81;;;3.65;100.00
71791;BME280;59638;52.126;5.434;2024-03-23T04:00:31;100975.00;;;3.64;100.00
71791;BME280;59638;52.126;5.434;2024-03-23T04:02:57;100972.66;;;3.60;100.00
71791;BME280;59638;52.126;5.434;2024-03-23T04:05:22;100972.41;;;3.48;100.00
71791;BME280;59638;52.126;5.434;2024-03-23T04:07:48;100969.31;;;3.42;100.00
71791;BME280;59638;52.126;5.434;2024-03-23T04:10:14;100970.00;;;3.45;100.00
71791;BME280;59638;52.126;5.434;2024-03-23T04:12:41;100966.91;;;3.39;100.00
71791;BME280;59638;52.126;5.434;2024-03-23T04:15:06;100968.59;;;3.40;100.00
71791;BME280;59638;52.126;5.434;2024-03-23T04:17:35;100958.25;;;3.38;100.00
71791;BME280;59638;52.126;5.434;2024-03-23T04:20:01;100959.44;;;3.33;100.00
71791;BME280;59638;52.126;5.434;2024-03-23T04:22:28;100959.19;;;3.37;100.00
71791;BME280;59638;52.126;5.434;2024-03-23T04:24:54;100954.84;;;3.36;100.00
71791;BME280;59638;52.126;5.434;2024-03-23T04:27:19;100953.03;;;3.38;100.00
71791;BME280;59638;52.126;5.434;2024-03-23T04:29:51;100955.22;;;3.30;100.00
71791;BME280;59638;52.126;5.434;2024-03-23T04:32:18;100952.88;;;3.25;100.00
71791;BME280;59638;52.126;5.434;2024-03-23T04:34:44;100960.97;;;3.21;100.00
71791;BME280;59638;52.126;5.434;2024-03-23T04:37:11;100954.56;;;3.26;100.00
71791;BME280;59638;52.126;5.434;2024-03-23T04:39:37;100947.66;;;3.25;100.00
71791;BME280;59638;52.126;5.434;2024-03-23T04:42:04;100953.03;;;3.22;100.00
71791;BME280;59638;52.126;5.434;2024-03-23T04:44:29;100955.59;;;3.24;100.00
71791;BME280;59638;52.126;5.434;2024-03-23T04:46:56;100965.84;;;3.27;100.00
71791;BME280;59638;52.126;5.434;2024-03-23T04:49:22;100958.94;;;3.26;100.00
71791;BME280;59638;52.126;5.434;2024-03-23T04:51:47;100964.06;;;3.27;100.00
71791;BME280;59638;52.126;5.434;2024-03-23T04:54:13;100961.78;;;3.37;100.00
71791;BME280;59638;52.126;5.434;2024-03-23T04:56:39;100956.84;;;3.47;100.00
71791;BME280;59638;52.126;5.434;2024-03-23T04:59:04;100955.66;;;3.52;100.00
71791;BME280;59638;52.126;5.434;2024-03-23T05:01:33;100944.28;;;3.53;100.00
71791;BME280;59638;52.126;5.434;2024-03-23T05:03:59;100948.94;;;3.48;100.00
71791;BME280;59638;52.126;5.434;2024-03-23T05:06:25;100955.28;;;3.44;100.00
71791;BME280;59638;52.126;5.434;2024-03-23T05:08:51;100954.50;;;3.42;100.00
71791;BME280;59638;52.126;5.434;2024-03-23T05:11:17;100952.81;;;3.41;100.00
71791;BME280;59638;52.126;5.434;2024-03-23T05:13:43;100952.66;;;3.44;100.00
71791;BME280;59638;52.126;5.434;2024-03-23T05:16:09;100948.94;;;3.48;100.00
71791;BME280;59638;52.126;5.434;2024-03-23T05:18:34;100955.09;;;3.47;100.00
71791;BME280;59638;52.126;5.434;2024-03-23T05:21:00;100949.47;;;3.39;100.00
71791;BME280;59638;52.126;5.434;2024-03-23T05:23:28;100947.97;;;3.35;100.00
71791;BME280;59638;52.126;5.434;2024-03-23T05:25:53;100952.44;;;3.33;100.00
71791;BME280;59638;52.126;5.434;2024-03-23T05:28:20;100960.44;;;3.30;100.00
71791;BME280;59638;52.126;5.434;2024-03-23T05:30:55;100959.09;;;3.23;100.00
71791;BME280;59638;52.126;5.434;2024-03-23T05:33:22;100962.94;;;3.17;100.00
71791;BME280;59638;52.126;5.434;2024-03-23T05:35:56;100961.31;;;3.15;100.00
71791;BME280;59638;52.126;5.434;2024-03-23T05:38:22;100963.00;;;3.16;100.00
71791;BME280;59638;52.126;5.434;2024-03-23T05:40:54;100955.94;;;3.18;100.00
71791;BME280;59638;52.126;5.434;2024-03-23T05:43:20;100965.44;;;3.19;100.00
71791;BME280;59638;52.126;5.434;2024-03-23T05:45:46;100963.47;;;3.22;100.00
71791;BME280;59638;52.126;5.434;2024-03-23T05:48:18;100954.84;;;3.36;100.00
71791;BME280;59638;52.126;5.434;2024-03-23T05:50:43;100965.38;;;3.50;100.00
71791;BME280;59638;52.126;5.434;2024-03-23T05:53:09;100946.09;;;3.67;100.00
71791;BME280;59638;52.126;5.434;2024-03-23T05:55:34;100946.09;;;3.81;100.00
71791;BME280;59638;52.126;5.434;2024-03-23T05:58:00;100944.72;;;3.90;100.00
71791;BME280;59638;52.126;5.434;2024-03-23T06:00:25;100941.53;;;3.99;100.00
71791;BME280;59638;52.126;5.434;2024-03-23T06:02:51;100944.16;;;3.99;100.00
71791;BME280;59638;52.126;5.434;2024-03-23T06:05:17;100942.28;;;4.01;100.00
71791;BME280;59638;52.126;5.434;2024-03-23T06:07:42;100944.63;;;4.06;100.00
71791;BME280;59638;52.126;5.434;2024-03-23T06:10:08;100940.06;;;4.09;100.00
71791;BME280;59638;52.126;5.434;2024-03-23T06:12:34;100946.75;;;4.14;100.00
71791;BME280;59638;52.126;5.434;2024-03-23T06:14:59;100941.75;;;4.11;100.00
71791;BME280;59638;52.126;5.434;2024-03-23T06:17:24;100949.47;;;4.12;100.00
71791;BME280;59638;52.126;5.434;2024-03-23T06:19:50;100947.81;;;4.11;100.00
71791;BME280;59638;52.126;5.434;2024-03-23T06:22:16;100953.88;;;4.12;100.00
71791;BME280;59638;52.126;5.434;2024-03-23T06:24:41;100949.28;;;4.15;100.00
71791;BME280;59638;52.126;5.434;2024-03-23T06:27:07;100943.88;;;4.18;100.00
71791;BME280;59638;52.126;5.434;2024-03-23T06:29:32;100944.50;;;4.22;100.00
71791;BME280;59638;52.126;5.434;2024-03-23T06:31:58;100938.91;;;4.28;100.00
71791;BME280;59638;52.126;5.434;2024-03-23T06:34:23;100939.44;;;4.47;100.00
71791;BME280;59638;52.126;5.434;2024-03-23T06:36:49;100933.66;;;4.56;100.00
71791;BME280;59638;52.126;5.434;2024-03-23T06:39:18;100926.50;;;4.73;100.00
71791;BME280;59638;52.126;5.434;2024-03-23T06:41:52;100929.81;;;4.89;100.00
71791;BME280;59638;52.126;5.434;2024-03-23T06:44:19;100931.50;;;4.90;100.00
71791;BME280;59638;52.126;5.434;2024-03-23T06:46:45;100931.50;;;4.90;100.00
71791;BME280;59638;52.126;5.434;2024-03-23T06:49:11;100926.91;;;4.94;100.00
71791;BME280;59638;52.126;5.434;2024-03-23T06:51:37;100923.78;;;5.01;100.00
71791;BME280;59638;52.126;5.434;2024-03-23T06:54:05;100930.22;;;5.10;100.00
71791;BME280;59638;52.126;5.434;2024-03-23T06:56:30;100936.41;;;5.22;100.00
71791;BME280;59638;52.126;5.434;2024-03-23T06:58:57;100928.91;;;5.30;100.00
71791;BME280;59638;52.126;5.434;2024-03-23T07:01:22;100933.31;;;5.42;100.00
71791;BME280;59638;52.126;5.434;2024-03-23T07:03:48;100944.44;;;5.58;100.00
71791;BME280;59638;52.126;5.434;2024-03-23T07:06:14;100938.38;;;5.70;100.00
71791;BME280;59638;52.126;5.434;2024-03-23T07:08:39;100941.81;;;5.84;100.00
71791;BME280;59638;52.126;5.434;2024-03-23T07:11:05;100938.78;;;5.90;100.00
71791;BME280;59638;52.126;5.434;2024-03-23T07:13:31;100931.06;;;6.01;100.00
71791;BME280;59638;52.126;5.434;2024-03-23T07:15:56;100927.25;;;6.31;100.00
71791;BME280;59638;52.126;5.434;2024-03-23T07:18:23;100930.31;;;6.61;100.00
71791;BME280;59638;52.126;5.434;2024-03-23T07:20:55;100935.69;;;6.84;100.00
71791;BME280;59638;52.126;5.434;2024-03-23T07:23:24;100927.69;;;7.09;100.00
71791;BME280;59638;52.126;5.434;2024-03-23T07:25:57;100931.66;;;7.26;100.00
71791;BME280;59638;52.126;5.434;2024-03-23T07:28:23;100925.66;;;7.48;100.00
71791;BME280;59638;52.126;5.434;2024-03-23T07:31:01;100929.78;;;7.74;100.00
71791;BME280;59638;52.126;5.434;2024-03-23T07:33:27;100926.44;;;7.83;100.00
71791;BME280;59638;52.126;5.434;2024-03-23T07:35:53;100932.41;;;7.97;100.00
71791;BME280;59638;52.126;5.434;2024-03-23T07:38:19;100923.56;;;7.98;100.00
71791;BME280;59638;52.126;5.434;2024-03-23T07:40:44;100926.94;;;8.22;100.00
71791;BME280;59638;52.126;5.434;2024-03-23T07:43:10;100920.84;;;8.44;100.00
71791;BME280;59638;52.126;5.434;2024-03-23T07:45:35;100931.44;;;8.31;100.00
71791;BME280;59638;52.126;5.434;2024-03-23T07:48:03;100923.34;;;8.12;100.00
71791;BME280;59638;52.126;5.434;2024-03-23T07:50:29;100928.69;;;7.77;100.00
71791;BME280;59638;52.126;5.434;2024-03-23T07:52:54;100933.00;;;7.67;100.00
71791;BME280;59638;52.126;5.434;2024-03-23T07:55:20;100938.19;;;8.13;100.00
71791;BME280;59638;52.126;5.434;2024-03-23T07:57:46;100923.53;;;8.65;100.00
71791;BME280;59638;52.126;5.434;2024-03-23T08:00:12;100932.28;;;9.09;100.00
71791;BME280;59638;52.126;5.434;2024-03-23T08:02:38;100922.00;;;9.06;100.00
71791;BME280;59638;52.126;5.434;2024-03-23T08:05:04;100929.66;;;9.30;100.00
71791;BME280;59638;52.126;5.434;2024-03-23T08:07:30;100933.41;;;9.48;100.00
71791;BME280;59638;52.126;5.434;2024-03-23T08:09:55;100930.75;;;9.27;100.00
71791;BME280;59638;52.126;5.434;2024-03-23T08:12:21;100920.38;;;9.46;100.00
71791;BME280;59638;52.126;5.434;2024-03-23T08:14:46;100923.03;;;9.77;100.00
71791;BME280;59638;52.126;5.434;2024-03-23T08:17:12;100920.06;;;9.91;100.00
71791;BME280;59638;52.126;5.434;2024-03-23T08:19:37;100923.38;;;9.63;100.00
71791;BME280;59638;52.126;5.434;2024-03-23T08:22:03;100923.44;;;10.24;100.00
71791;BME280;59638;52.126;5.434;2024-03-23T08:24:28;100924.47;;;10.12;100.00
71791;BME280;59638;52.126;5.434;2024-03-23T08:26:55;100918.75;;;9.34;100.00
71791;BME280;59638;52.126;5.434;2024-03-23T08:29:21;100919.72;;;9.33;100.00
71791;BME280;59638;52.126;5.434;2024-03-23T08:31:46;100925.50;;;9.27;100.00
71791;BME280;59638;52.126;5.434;2024-03-23T08:34:12;100937.56;;;9.30;100.00
71791;BME280;59638;52.126;5.434;2024-03-23T08:36:37;100935.19;;;10.20;100.00
71791;BME280;59638;52.126;5.434;2024-03-23T08:39:03;100928.44;;;10.27;100.00
71791;BME280;59638;52.126;5.434;2024-03-23T08:41:28;100921.34;;;9.76;100.00
71791;BME280;59638;52.126;5.434;2024-03-23T08:43:54;100922.72;;;9.29;100.00
71791;BME280;59638;52.126;5.434;2024-03-23T08:46:19;100927.44;;;9.25;100.00
71791;BME280;59638;52.126;5.434;2024-03-23T08:48:45;100924.50;;;10.21;100.00
71791;BME280;59638;52.126;5.434;2024-03-23T08:51:13;100920.09;;;10.91;100.00
71791;BME280;59638;52.126;5.434;2024-03-23T08:53:39;100931.19;;;10.66;100.00
71791;BME280;59638;52.126;5.434;2024-03-23T08:56:06;100924.75;;;9.88;100.00
71791;BME280;59638;52.126;5.434;2024-03-23T08:58:33;100920.22;;;10.30;100.00
71791;BME280;59638;52.126;5.434;2024-03-23T09:01:12;100934.53;;;10.87;100.00
71791;BME280;59638;52.126;5.434;2024-03-23T09:03:41;100917.38;;;11.68;100.00
71791;BME280;59638;52.126;5.434;2024-03-23T09:06:08;100917.66;;;11.85;100.00
71791;BME280;59638;52.126;5.434;2024-03-23T09:08:34;100918.56;;;11.37;100.00
71791;BME280;59638;52.126;5.434;2024-03-23T09:11:05;100909.22;;;11.52;100.00
71791;BME280;59638;52.126;5.434;2024-03-23T09:13:35;100918.16;;;10.93;100.00
71791;BME280;59638;52.126;5.434;2024-03-23T09:16:01;100916.16;;;11.63;100.00
71791;BME280;59638;52.126;5.434;2024-03-23T09:18:27;100928.38;;;11.74;100.00
71791;BME280;59638;52.126;5.434;2024-03-23T09:20:53;100923.66;;;10.51;100.00
71791;BME280;59638;52.126;5.434;2024-03-23T09:23:20;100922.16;;;9.67;100.00
71791;BME280;59638;52.126;5.434;2024-03-23T09:25:46;100931.88;;;8.92;100.00
71791;BME280;59638;52.126;5.434;2024-03-23T09:28:11;100922.63;;;8.21;100.00
71791;BME280;59638;52.126;5.434;2024-03-23T09:30:37;100931.22;;;7.67;100.00
71791;BME280;59638;52.126;5.434;2024-03-23T09:33:09;100922.41;;;7.33;100.00
71791;BME280;59638;52.126;5.434;2024-03-23T09:35:39;100923.53;;;7.18;100.00
71791;BME280;59638;52.126;5.434;2024-03-23T09:38:05;100915.09;;;7.25;100.00
71791;BME280;59638;52.126;5.434;2024-03-23T09:40:33;100929.66;;;7.29;100.00
71791;BME280;59638;52.126;5.434;2024-03-23T09:42:58;100919.66;;;7.34;100.00
71791;BME280;59638;52.126;5.434;2024-03-23T09:45:28;100932.81;;;7.46;100.00
71791;BME280;59638;52.126;5.434;2024-03-23T09:47:54;100916.53;;;7.29;100.00
71791;BME280;59638;52.126;5.434;2024-03-23T09:50:21;100941.75;;;6.84;100.00
71791;BME280;59638;52.126;5.434;2024-03-23T09:52:46;100924.72;;;6.42;100.00
71791;BME280;59638;52.126;5.434;2024-03-23T09:55:12;100921.19;;;6.17;100.00
71791;BME280;59638;52.126;5.434;2024-03-23T09:57:39;100916.47;;;6.10;100.00
71791;BME280;59638;52.126;5.434;2024-03-23T10:00:05;100921.38;;;7.58;100.00
71791;BME280;59638;52.126;5.434;2024-03-23T10:02:32;100911.03;;;9.21;100.00
71791;BME280;59638;52.126;5.434;2024-03-23T10:04:59;100904.59;;;10.07;100.00
71791;BME280;59638;52.126;5.434;2024-03-23T10:07:25;100908.69;;;10.81;100.00
71791;BME280;59638;52.126;5.434;2024-03-23T10:09:51;100890.25;;;11.66;100.00
71791;BME280;59638;52.126;5.434;2024-03-23T10:12:18;100886.63;;;12.42;100.00
71791;BME280;59638;52.126;5.434;2024-03-23T10:14:45;100892.09;;;12.58;100.00
71791;BME280;59638;52.126;5.434;2024-03-23T10:17:13;100887.88;;;13.01;100.00
71791;BME280;59638;52.126;5.434;2024-03-23T10:19:40;100888.66;;;13.55;100.00
71791;BME280;59638;52.126;5.434;2024-03-23T10:22:08;100896.81;;;13.87;100.00
71791;BME280;59638;52.126;5.434;2024-03-23T10:24:34;100884.03;;;13.57;100.00
71791;BME280;59638;52.126;5.434;2024-03-23T10:27:00;100885.34;;;12.18;100.00
71791;BME280;59638;52.126;5.434;2024-03-23T10:29:25;100900.75;;;10.71;100.00
71791;BME280;59638;52.126;5.434;2024-03-23T10:31:53;100893.13;;;11.07;100.00
71791;BME280;59638;52.126;5.434;2024-03-23T10:34:25;100903.31;;;11.78;100.00
71791;BME280;59638;52.126;5.434;2024-03-23T10:36:53;100888.50;;;12.04;100.00
71791;BME280;59638;52.126;5.434;2024-03-23T10:39:20;100886.16;;;12.29;100.00
71791;BME280;59638;52.126;5.434;2024-03-23T10:41:49;100888.97;;;12.45;100.00
71791;BME280;59638;52.126;5.434;2024-03-23T10:44:19;100882.22;;;12.33;100.00
71791;BME280;59638;52.126;5.434;2024-03-23T10:46:45;100880.66;;;12.58;100.00
71791;BME280;59638;52.126;5.434;2024-03-23T10:49:10;100875.94;;;12.34;100.00
71791;BME280;59638;52.126;5.434;2024-03-23T10:51:37;100900.34;;;11.14;100.00
71791;BME280;59638;52.126;5.434;2024-03-23T10:54:04;100909.84;;;10.07;100.00
71791;BME280;59638;52.126;5.434;2024-03-23T10:56:34;100915.47;;;9.21;100.00
71791;BME280;59638;52.126;5.434;2024-03-23T10:59:01;100926.22;;;7.86;100.00
71791;BME280;59638;52.126;5.434;2024-03-23T11:01:28;100928.50;;;7.33;100.00
71791;BME280;59638;52.126;5.434;2024-03-23T11:03:54;100920.34;;;7.25;100.00
71791;BME280;59638;52.126;5.434;2024-03-23T11:06:36;100920.38;;;7.36;100.00
71791;BME280;59638;52.126;5.434;2024-03-23T11:09:02;100912.13;;;7.87;100.00
71791;BME280;59638;52.126;5.434;2024-03-23T11:11:28;100908.88;;;8.94;100.00
71791;BME280;59638;52.126;5.434;2024-03-23T11:13:57;100902.59;;;9.69;100.00
71791;BME280;59638;52.126;5.434;2024-03-23T11:16:27;100904.47;;;10.49;100.00
71791;BME280;59638;52.126;5.434;2024-03-23T11:19:33;100888.22;;;11.51;100.00
71791;BME280;59638;52.126;5.434;2024-03-23T11:21:58;100879.75;;;11.94;100.00
71791;BME280;59638;52.126;5.434;2024-03-23T11:24:24;100881.03;;;11.04;100.00
71791;BME280;59638;52.126;5.434;2024-03-23T11:26:49;100884.00;;;10.01;100.00
71791;BME280;59638;52.126;5.434;2024-03-23T11:29:16;100900.78;;;9.70;100.00
71791;BME280;59638;52.126;5.434;2024-03-23T11:31:49;100894.66;;;9.60;100.00
71791;BME280;59638;52.126;5.434;2024-03-23T11:34:15;100889.69;;;10.27;100.00
71791;BME280;59638;52.126;5.434;2024-03-23T11:36:42;100892.81;;;10.61;100.00
71791;BME280;59638;52.126;5.434;2024-03-23T11:39:18;100885.03;;;10.50;100.00
71791;BME280;59638;52.126;5.434;2024-03-23T11:41:52;100872.81;;;10.88;100.00
71791;BME280;59638;52.126;5.434;2024-03-23T11:44:26;100879.78;;;10.79;100.00
71791;BME280;59638;52.126;5.434;2024-03-23T11:46:52;100859.28;;;11.39;100.00
71791;BME280;59638;52.126;5.434;2024-03-23T11:49:28;100856.34;;;11.52;100.00
71791;BME280;59638;52.126;5.434;2024-03-23T11:51:55;100871.31;;;11.81;100.00
71791;BME280;59638;52.126;5.434;2024-03-23T11:54:26;100862.09;;;11.75;100.00
71791;BME280;59638;52.126;5.434;2024-03-23T11:57:00;100863.19;;;11.45;98.63
71791;BME280;59638;52.126;5.434;2024-03-23T11:59:35;100865.59;;;10.51;100.00
71791;BME280;59638;52.126;5.434;2024-03-23T12:02:08;100863.53;;;9.53;100.00
71791;BME280;59638;52.126;5.434;2024-03-23T12:04:35;100876.97;;;9.30;100.00
71791;BME280;59638;52.126;5.434;2024-03-23T12:07:17;100879.38;;;9.12;100.00
71791;BME280;59638;52.126;5.434;2024-03-23T12:10:05;100865.00;;;10.38;100.00
71791;BME280;59638;52.126;5.434;2024-03-23T12:12:34;100870.22;;;10.19;100.00
71791;BME280;59638;52.126;5.434;2024-03-23T12:15:06;100856.84;;;9.49;100.00
71791;BME280;59638;52.126;5.434;2024-03-23T12:17:32;100867.13;;;9.11;100.00
71791;BME280;59638;52.126;5.434;2024-03-23T12:19:58;100866.47;;;8.97;100.00
71791;BME280;59638;52.126;5.434;2024-03-23T12:22:24;100863.03;;;8.65;100.00
71791;BME280;59638;52.126;5.434;2024-03-23T12:24:50;100855.50;;;9.55;99.82
71791;BME280;59638;52.126;5.434;2024-03-23T12:27:16;100845.88;;;10.65;93.67
71791;BME280;59638;52.126;5.434;2024-03-23T12:29:42;100834.41;;;11.32;100.00
71791;BME280;59638;52.126;5.434;2024-03-23T12:32:11;100828.41;;;11.87;95.94
71791;BME280;59638;52.126;5.434;2024-03-23T12:34:37;100835.84;;;11.07;96.46
71791;BME280;59638;52.126;5.434;2024-03-23T12:37:02;100839.34;;;10.59;100.00
71791;BME280;59638;52.126;5.434;2024-03-23T12:39:28;100841.97;;;10.59;99.42
71791;BME280;59638;52.126;5.434;2024-03-23T12:41:53;100845.31;;;10.81;88.40
71791;BME280;59638;52.126;5.434;2024-03-23T12:44:19;100841.81;;;10.42;91.36
71791;BME280;59638;52.126;5.434;2024-03-23T12:46:45;100832.09;;;10.02;92.61
71791;BME280;59638;52.126;5.434;2024-03-23T12:49:10;100843.94;;;10.77;96.59
71791;BME280;59638;52.126;5.434;2024-03-23T12:51:36;100835.56;;;10.33;78.71
71791;BME280;59638;52.126;5.434;2024-03-23T12:54:02;100834.56;;;9.84;96.07
71791;BME280;59638;52.126;5.434;2024-03-23T12:56:28;100844.72;;;9.37;90.50
71791;BME280;59638;52.126;5.434;2024-03-23T12:58:54;100836.91;;;9.57;100.00
71791;BME280;59638;52.126;5.434;2024-03-23T13:01:21;100833.22;;;9.99;100.00
71791;BME280;59638;52.126;5.434;2024-03-23T13:03:47;100834.69;;;10.23;96.58
71791;BME280;59638;52.126;5.434;2024-03-23T13:06:13;100835.56;;;10.62;98.56
71791;BME280;59638;52.126;5.434;2024-03-23T13:08:39;100837.78;;;10.47;92.51
71791;BME280;59638;52.126;5.434;2024-03-23T13:11:07;100819.88;;;9.91;93.55
71791;BME280;59638;52.126;5.434;2024-03-23T13:13:34;100836.50;;;9.31;91.47
71791;BME280;59638;52.126;5.434;2024-03-23T13:16:00;100834.66;;;9.01;100.00
71791;BME280;59638;52.126;5.434;2024-03-23T13:18:25;100837.84;;;8.83;93.40
71791;BME280;59638;52.126;5.434;2024-03-23T13:20:51;100828.50;;;9.32;94.53
71791;BME280;59638;52.126;5.434;2024-03-23T13:23:17;100827.25;;;9.67;86.79
71791;BME280;59638;52.126;5.434;2024-03-23T13:25:49;100832.16;;;9.50;89.39
71791;BME280;59638;52.126;5.434;2024-03-23T13:28:15;100865.09;;;8.93;83.39
71791;BME280;59638;52.126;5.434;2024-03-23T13:30:55;100874.13;;;8.03;88.81
71791;BME280;59638;52.126;5.434;2024-03-23T13:33:22;100893.19;;;7.49;95.37
71791;BME280;59638;52.126;5.434;2024-03-23T13:35:55;100879.59;;;7.08;100.00
71791;BME280;59638;52.126;5.434;2024-03-23T13:38:22;100859.19;;;7.01;100.00